createdAt,value
2019-05-14T00:00:06.949Z,8.43
2019-05-14T00:01:06.929Z,8.45
2019-05-14T00:03:02.330Z,8.50
2019-05-14T00:04:02.079Z,8.50
2019-05-14T00:05:53.732Z,8.52
2019-05-14T00:06:53.733Z,8.50
2019-05-14T00:08:46.659Z,8.48
2019-05-14T00:09:46.639Z,8.52
2019-05-14T00:11:42.132Z,8.52
2019-05-14T00:12:41.827Z,8.48
2019-05-14T00:14:39.560Z,8.44
2019-05-14T00:15:33.447Z,8.47
2019-05-14T00:17:26.359Z,8.50
2019-05-14T00:18:26.354Z,8.43
2019-05-14T00:20:22.391Z,8.41
2019-05-14T00:21:21.151Z,8.45
2019-05-14T00:23:12.663Z,8.45
2019-05-14T00:24:12.662Z,8.44
2019-05-14T00:26:05.581Z,8.44
2019-05-14T00:27:05.568Z,8.37
2019-05-14T00:28:58.469Z,8.30
2019-05-14T00:29:58.477Z,8.30
2019-05-14T00:31:51.740Z,8.29
2019-05-14T00:32:52.055Z,8.33
2019-05-14T00:34:44.847Z,8.20
2019-05-14T00:35:44.792Z,8.23
2019-05-14T00:37:37.695Z,8.25
2019-05-14T00:38:37.697Z,8.20
2019-05-14T00:40:31.528Z,8.19
2019-05-14T00:41:31.273Z,8.19
2019-05-14T00:43:24.012Z,8.33
2019-05-14T00:44:24.017Z,8.20
2019-05-14T00:46:16.922Z,8.25
2019-05-14T00:47:16.925Z,8.23
2019-05-14T00:49:11.917Z,8.15
2019-05-14T00:50:11.304Z,8.10
2019-05-14T00:52:03.232Z,8.05
2019-05-14T00:53:03.235Z,8.04
2019-05-14T00:54:56.139Z,7.98
2019-05-14T00:55:56.141Z,7.97
2019-05-14T00:57:51.970Z,8.04
2019-05-14T00:58:51.945Z,8.08
2019-05-14T01:00:42.985Z,8.10
2019-05-14T01:01:43.008Z,8.02
2019-05-14T01:03:35.921Z,8.07
2019-05-14T01:04:35.902Z,8.01
2019-05-14T01:06:31.284Z,8.00
2019-05-14T01:07:28.809Z,7.97
2019-05-14T01:09:22.229Z,7.92
2019-05-14T01:10:22.281Z,7.87
2019-05-14T01:12:15.625Z,7.92
2019-05-14T01:13:15.624Z,7.93
2019-05-14T01:15:11.627Z,7.92
2019-05-14T01:16:09.032Z,7.86
2019-05-14T01:18:02.334Z,7.85
2019-05-14T01:19:02.215Z,7.85
2019-05-14T01:20:54.837Z,7.83
2019-05-14T01:21:54.843Z,7.75
2019-05-14T01:23:48.230Z,7.83
2019-05-14T01:24:48.239Z,7.86
2019-05-14T01:26:41.605Z,7.86
2019-05-14T01:27:41.525Z,7.86
2019-05-14T01:29:34.551Z,7.75
2019-05-14T01:30:34.558Z,7.68
2019-05-14T01:32:27.462Z,7.83
2019-05-14T01:33:27.462Z,7.72
2019-05-14T01:35:22.208Z,7.74
2019-05-14T01:36:21.506Z,7.75
2019-05-14T01:38:13.816Z,7.72
2019-05-14T01:39:13.770Z,7.69
2019-05-14T01:41:06.673Z,7.58
2019-05-14T01:42:06.676Z,7.55
2019-05-14T01:44:01.685Z,7.58
2019-05-14T01:44:59.582Z,7.50
2019-05-14T01:46:52.488Z,7.50
2019-05-14T01:47:52.494Z,7.46
2019-05-14T01:49:45.416Z,7.40
2019-05-14T01:50:45.423Z,7.42
2019-05-14T01:52:38.330Z,7.35
2019-05-14T01:53:38.333Z,7.40
2019-05-14T01:55:32.472Z,7.27
2019-05-14T01:56:31.913Z,7.24
2019-05-14T01:58:24.641Z,7.24
2019-05-14T01:59:24.648Z,7.10
2019-05-14T02:01:18.044Z,7.09
2019-05-14T02:02:18.046Z,7.06
2019-05-14T02:04:11.623Z,7.07
2019-05-14T02:05:12.478Z,7.09
2019-05-14T02:07:04.349Z,7.09
2019-05-14T02:08:04.351Z,6.97
2019-05-14T02:09:57.745Z,7.06
2019-05-14T02:10:57.753Z,7.05
2019-05-14T02:12:51.564Z,7.07
2019-05-14T02:13:51.902Z,6.95
2019-05-14T02:15:44.133Z,7.07
2019-05-14T02:16:44.116Z,7.06
2019-05-14T02:18:37.510Z,7.05
2019-05-14T02:19:37.512Z,7.05
2019-05-14T02:21:31.806Z,7.07
2019-05-14T02:22:32.027Z,7.03
2019-05-14T02:24:23.835Z,6.97
2019-05-14T02:25:23.830Z,7.03
2019-05-14T02:27:16.759Z,7.06
2019-05-14T02:28:16.802Z,7.13
2019-05-14T02:30:10.526Z,7.06
2019-05-14T02:31:09.832Z,7.12
2019-05-14T02:33:04.229Z,7.07
2019-05-14T02:34:04.155Z,6.91
2019-05-14T02:36:00.012Z,6.97
2019-05-14T02:37:00.347Z,7.05
2019-05-14T02:38:51.046Z,6.97
2019-05-14T02:39:51.034Z,6.92
2019-05-14T02:41:44.007Z,6.91
2019-05-14T02:42:43.935Z,6.89
2019-05-14T02:44:40.291Z,6.91
2019-05-14T02:45:45.184Z,6.84
2019-05-14T02:47:29.980Z,6.79
2019-05-14T02:48:29.770Z,6.76
2019-05-14T02:50:23.158Z,6.69
2019-05-14T02:51:23.152Z,6.73
2019-05-14T02:53:19.512Z,6.70
2019-05-14T02:54:16.084Z,6.73
2019-05-14T02:56:10.400Z,6.70
2019-05-14T02:57:10.658Z,6.69
2019-05-14T02:59:05.597Z,6.70
2019-05-14T03:00:02.367Z,6.66
2019-05-14T03:01:55.271Z,6.74
2019-05-14T03:02:55.292Z,6.66
2019-05-14T03:04:49.872Z,6.61
2019-05-14T03:05:49.505Z,6.54
2019-05-14T03:07:41.580Z,6.59
2019-05-14T03:08:41.574Z,6.69
2019-05-14T03:10:34.471Z,6.64
2019-05-14T03:11:34.478Z,6.71
2019-05-14T03:13:29.618Z,6.77
2019-05-14T03:14:30.257Z,6.62
2019-05-14T03:16:30.407Z,6.64
2019-05-14T03:17:20.784Z,6.69
2019-05-14T03:19:13.707Z,6.56
2019-05-14T03:20:13.702Z,6.64
2019-05-14T03:22:10.140Z,6.54
2019-05-14T03:23:10.551Z,6.51
2019-05-14T03:25:01.473Z,6.48
2019-05-14T03:26:01.054Z,6.44
2019-05-14T03:27:53.406Z,6.48
2019-05-14T03:28:53.419Z,6.44
2019-05-14T03:30:51.460Z,6.41
2019-05-14T03:31:51.889Z,6.36
2019-05-14T03:33:44.061Z,6.34
2019-05-14T03:34:43.333Z,6.52
2019-05-14T03:36:35.198Z,6.41
2019-05-14T03:37:32.622Z,6.37
2019-05-14T03:39:25.526Z,6.28
2019-05-14T03:40:25.525Z,6.18
2019-05-14T03:42:19.534Z,6.22
2019-05-14T03:43:19.884Z,6.19
2019-05-14T03:45:12.814Z,6.21
2019-05-14T03:46:12.826Z,6.17
2019-05-14T03:48:09.996Z,6.15
2019-05-14T03:49:09.104Z,6.14
2019-05-14T03:51:00.255Z,6.17
2019-05-14T03:52:00.488Z,6.18
2019-05-14T03:54:01.634Z,6.18
2019-05-14T03:54:52.075Z,6.17
2019-05-14T03:56:44.983Z,6.34
2019-05-14T03:57:44.977Z,6.38
2019-05-14T03:59:40.205Z,6.69
2019-05-14T04:00:39.093Z,6.84
2019-05-14T04:02:31.281Z,7.09
2019-05-14T04:03:31.289Z,7.31
2019-05-14T04:05:24.188Z,7.50
2019-05-14T04:06:24.283Z,7.58
2019-05-14T04:08:17.118Z,7.67
2019-05-14T04:09:20.145Z,7.68
2019-05-14T04:11:10.001Z,7.97
2019-05-14T04:12:10.428Z,7.97
2019-05-14T04:14:02.933Z,8.16
2019-05-14T04:15:02.919Z,8.34
2019-05-14T04:17:04.750Z,8.71
2019-05-14T04:17:55.821Z,9.10
2019-05-14T04:19:49.935Z,9.54
2019-05-14T04:20:50.267Z,9.61
2019-05-14T04:22:42.638Z,10.01
2019-05-14T04:23:42.640Z,10.27
2019-05-14T04:25:38.812Z,10.60
2019-05-14T04:26:53.203Z,10.74
2019-05-14T04:28:29.804Z,11.22
2019-05-14T04:29:30.602Z,11.49
2019-05-14T04:31:21.876Z,11.62
2019-05-14T04:32:21.929Z,11.88
2019-05-14T04:34:14.791Z,12.27
2019-05-14T04:35:14.804Z,12.42
2019-05-14T04:37:09.656Z,12.83
2019-05-14T04:38:09.605Z,13.03
2019-05-14T04:40:00.709Z,13.66
2019-05-14T04:41:00.630Z,13.77
2019-05-14T04:42:54.030Z,14.00
2019-05-14T04:43:54.033Z,14.09
2019-05-14T04:45:49.707Z,14.17
2019-05-14T04:46:49.422Z,14.27
2019-05-14T04:48:43.492Z,14.68
2019-05-14T04:49:40.305Z,14.94
2019-05-14T04:51:33.415Z,15.23
2019-05-14T04:52:33.428Z,15.34
2019-05-14T04:54:29.870Z,15.75
2019-05-14T04:55:29.482Z,15.87
2019-05-14T04:57:21.434Z,16.27
2019-05-14T04:58:21.613Z,16.53
2019-05-14T05:00:12.870Z,16.68
2019-05-14T05:01:12.213Z,16.81
2019-05-14T05:03:08.492Z,16.76
2019-05-14T05:04:05.136Z,16.68
2019-05-14T05:05:58.981Z,16.45
2019-05-14T05:06:59.246Z,16.45
2019-05-14T05:08:51.057Z,16.49
2019-05-14T05:09:50.992Z,16.48
2019-05-14T05:11:43.901Z,16.05
2019-05-14T05:12:43.914Z,15.83
2019-05-14T05:14:38.926Z,15.68
2019-05-14T05:15:39.395Z,15.74
2019-05-14T05:17:43.002Z,15.59
2019-05-14T05:18:29.929Z,15.71
2019-05-14T05:20:22.679Z,15.50
2019-05-14T05:21:22.687Z,15.19
2019-05-14T05:23:15.607Z,14.51
2019-05-14T05:24:15.614Z,14.28
2019-05-14T05:26:10.010Z,13.52
2019-05-14T05:27:10.030Z,13.04
2019-05-14T05:29:06.932Z,12.82
2019-05-14T05:30:02.943Z,12.60
2019-05-14T05:31:55.852Z,12.27
2019-05-14T05:32:55.864Z,12.10
2019-05-14T05:34:48.776Z,11.78
2019-05-14T05:35:48.802Z,11.65
2019-05-14T05:37:41.706Z,11.60
2019-05-14T05:38:41.703Z,11.57
2019-05-14T05:40:34.616Z,11.57
2019-05-14T05:41:34.621Z,11.57
2019-05-14T05:43:28.553Z,11.69
2019-05-14T05:44:28.773Z,11.61
2019-05-14T05:46:20.450Z,11.88
2019-05-14T05:47:20.455Z,12.12
2019-05-14T05:49:14.365Z,12.38
2019-05-14T05:50:14.368Z,12.46
2019-05-14T05:52:08.613Z,12.62
2019-05-14T05:53:09.020Z,12.67
2019-05-14T05:55:00.423Z,12.95
2019-05-14T05:56:00.212Z,12.92
2019-05-14T05:57:53.694Z,13.45
2019-05-14T05:58:53.644Z,13.71
2019-05-14T06:00:49.550Z,14.27
2019-05-14T06:01:50.063Z,14.42
2019-05-14T06:03:40.517Z,14.68
2019-05-14T06:04:40.500Z,14.96
2019-05-14T06:06:33.905Z,15.38
2019-05-14T06:07:33.921Z,15.57
2019-05-14T06:09:28.668Z,15.87
2019-05-14T06:10:29.144Z,16.02
2019-05-14T06:12:19.794Z,15.86
2019-05-14T06:13:19.778Z,15.84
2019-05-14T06:15:14.432Z,15.64
2019-05-14T06:16:12.711Z,15.43
2019-05-14T06:18:15.165Z,15.43
2019-05-14T06:19:08.002Z,15.57
2019-05-14T06:20:59.067Z,15.74
2019-05-14T06:21:59.780Z,15.90
2019-05-14T06:23:51.994Z,15.49
2019-05-14T06:24:52.006Z,15.34
2019-05-14T06:26:45.424Z,15.32
2019-05-14T06:27:45.443Z,15.38
2019-05-14T06:29:38.870Z,15.53
2019-05-14T06:30:39.554Z,15.35
2019-05-14T06:32:31.797Z,15.41
2019-05-14T06:33:31.812Z,15.38
2019-05-14T06:35:24.734Z,15.41
2019-05-14T06:36:24.746Z,15.50
2019-05-14T06:38:18.538Z,15.47
2019-05-14T06:39:18.268Z,15.38
2019-05-14T06:41:11.173Z,15.41
2019-05-14T06:42:11.123Z,15.38
2019-05-14T06:44:04.040Z,15.03
2019-05-14T06:45:04.051Z,15.09
2019-05-14T06:46:59.054Z,15.44
2019-05-14T06:47:59.195Z,15.65
2019-05-14T06:49:49.922Z,15.78
2019-05-14T06:50:50.555Z,16.00
2019-05-14T06:52:42.852Z,16.17
2019-05-14T06:53:42.873Z,16.24
2019-05-14T06:55:35.796Z,16.02
2019-05-14T06:56:38.102Z,15.97
2019-05-14T06:58:29.869Z,15.82
2019-05-14T06:59:29.008Z,15.87
2019-05-14T07:01:21.696Z,16.07
2019-05-14T07:02:21.689Z,16.14
2019-05-14T07:04:14.619Z,16.20
2019-05-14T07:05:14.635Z,15.84
2019-05-14T07:07:08.631Z,15.78
2019-05-14T07:08:09.011Z,16.04
2019-05-14T07:10:01.005Z,16.02
2019-05-14T07:11:01.030Z,16.11
2019-05-14T07:12:53.954Z,16.07
2019-05-14T07:13:53.957Z,16.11
2019-05-14T07:15:48.985Z,16.07
2019-05-14T07:16:48.478Z,15.96
2019-05-14T07:18:52.734Z,15.72
2019-05-14T07:19:40.322Z,15.56
2019-05-14T07:21:33.251Z,15.46
2019-05-14T07:22:33.260Z,15.20
2019-05-14T07:24:28.263Z,14.68
2019-05-14T07:25:28.688Z,14.52
2019-05-14T07:27:19.643Z,14.39
2019-05-14T07:28:19.641Z,14.17
2019-05-14T07:30:12.558Z,14.20
2019-05-14T07:31:12.566Z,14.06
2019-05-14T07:33:05.475Z,14.04
2019-05-14T07:34:05.489Z,14.04
2019-05-14T07:35:59.390Z,13.92
2019-05-14T07:36:58.775Z,13.73
2019-05-14T07:38:51.323Z,13.85
2019-05-14T07:39:51.330Z,13.73
2019-05-14T07:41:44.257Z,13.69
2019-05-14T07:42:44.254Z,13.54
2019-05-14T07:44:39.107Z,13.66
2019-05-14T07:45:38.530Z,13.71
2019-05-14T07:47:30.126Z,13.73
2019-05-14T07:48:30.354Z,13.70
2019-05-14T07:50:23.226Z,13.69
2019-05-14T07:51:23.183Z,13.69
2019-05-14T07:53:18.010Z,13.52
2019-05-14T07:54:16.101Z,13.51
2019-05-14T07:56:09.619Z,13.52
2019-05-14T07:57:09.046Z,13.55
2019-05-14T07:59:02.415Z,13.88
2019-05-14T08:00:01.966Z,14.07
2019-05-14T08:01:54.934Z,13.96
2019-05-14T08:02:54.884Z,13.88
2019-05-14T08:04:48.740Z,14.02
2019-05-14T08:05:48.411Z,14.07
2019-05-14T08:07:40.715Z,14.10
2019-05-14T08:08:40.726Z,14.07
2019-05-14T08:10:33.642Z,14.07
2019-05-14T08:11:33.649Z,13.97
2019-05-14T08:13:28.210Z,14.12
2019-05-14T08:14:28.881Z,14.24
2019-05-14T08:16:19.490Z,14.40
2019-05-14T08:17:19.486Z,14.32
2019-05-14T08:19:24.157Z,14.58
2019-05-14T08:20:12.408Z,14.50
2019-05-14T08:22:05.328Z,14.52
2019-05-14T08:23:05.328Z,14.60
2019-05-14T08:24:58.245Z,14.75
2019-05-14T08:25:58.687Z,14.80
2019-05-14T08:27:51.160Z,14.83
2019-05-14T08:28:51.172Z,14.80
2019-05-14T08:30:44.088Z,14.72
2019-05-14T08:31:44.094Z,14.75
2019-05-14T08:33:39.472Z,14.45
2019-05-14T08:34:38.906Z,14.52
2019-05-14T08:36:29.941Z,14.46
2019-05-14T08:37:29.936Z,14.46
2019-05-14T08:39:22.867Z,14.33
2019-05-14T08:40:22.855Z,14.43
2019-05-14T08:42:15.781Z,14.33
2019-05-14T08:43:18.296Z,14.43
2019-05-14T08:45:10.554Z,14.47
2019-05-14T08:46:08.699Z,14.40
2019-05-14T08:48:01.636Z,14.40
2019-05-14T08:49:01.621Z,14.40
2019-05-14T08:50:55.104Z,14.27
2019-05-14T08:51:55.061Z,14.29
2019-05-14T08:53:50.303Z,14.33
2019-05-14T08:54:50.564Z,14.39
2019-05-14T08:56:41.066Z,14.39
2019-05-14T08:57:40.937Z,14.40
2019-05-14T08:59:33.918Z,14.52
2019-05-14T09:00:33.832Z,14.61
2019-05-14T09:02:28.664Z,14.70
2019-05-14T09:03:28.798Z,14.69
2019-05-14T09:05:19.668Z,14.73
2019-05-14T09:06:19.673Z,14.72
2019-05-14T09:08:12.588Z,14.72
2019-05-14T09:09:12.605Z,14.94
2019-05-14T09:11:05.521Z,15.23
2019-05-14T09:12:05.519Z,15.21
2019-05-14T09:13:59.448Z,15.21
2019-05-14T09:14:59.013Z,15.28
2019-05-14T09:16:51.523Z,15.25
2019-05-14T09:17:51.368Z,15.20
2019-05-14T09:19:57.592Z,15.14
2019-05-14T09:20:44.288Z,15.20
2019-05-14T09:22:39.686Z,15.35
2019-05-14T09:23:39.220Z,15.38
2019-05-14T09:25:30.167Z,15.57
2019-05-14T09:26:30.137Z,15.69
2019-05-14T09:28:23.051Z,15.69
2019-05-14T09:29:25.970Z,15.68
2019-05-14T09:31:18.733Z,15.57
2019-05-14T09:32:18.668Z,15.60
2019-05-14T09:34:09.243Z,15.41
2019-05-14T09:35:09.808Z,15.47
2019-05-14T09:37:01.833Z,15.39
2019-05-14T09:38:01.841Z,15.41
2019-05-14T09:39:54.752Z,15.57
2019-05-14T09:41:08.397Z,15.69
2019-05-14T09:42:50.016Z,15.78
2019-05-14T09:43:48.767Z,16.00
2019-05-14T09:45:40.608Z,16.11
2019-05-14T09:46:40.615Z,16.12
2019-05-14T09:48:33.529Z,16.07
2019-05-14T09:49:33.542Z,15.93
2019-05-14T09:51:28.680Z,15.80
2019-05-14T09:52:29.156Z,15.76
2019-05-14T09:54:19.431Z,15.76
2019-05-14T09:55:19.395Z,15.82
2019-05-14T09:57:12.316Z,15.65
2019-05-14T09:58:12.323Z,15.71
2019-05-14T10:00:05.238Z,15.82
2019-05-14T10:01:05.250Z,15.93
2019-05-14T10:02:59.690Z,15.93
2019-05-14T10:03:59.293Z,15.87
2019-05-14T10:05:51.127Z,15.82
2019-05-14T10:06:51.100Z,15.83
2019-05-14T10:08:44.016Z,15.76
2019-05-14T10:09:44.025Z,15.93
2019-05-14T10:11:38.384Z,16.04
2019-05-14T10:12:48.188Z,16.12
2019-05-14T10:14:30.049Z,16.17
2019-05-14T10:15:30.027Z,16.12
2019-05-14T10:17:23.093Z,16.15
2019-05-14T10:18:23.101Z,16.21
2019-05-14T10:20:35.131Z,16.28
2019-05-14T10:21:18.528Z,16.39
2019-05-14T10:23:09.346Z,16.17
2019-05-14T10:24:09.410Z,16.15
2019-05-14T10:26:01.876Z,15.90
2019-05-14T10:27:01.885Z,15.84
2019-05-14T10:28:54.825Z,15.68
2019-05-14T10:29:54.809Z,15.62
2019-05-14T10:31:48.532Z,15.56
2019-05-14T10:32:49.200Z,15.56
2019-05-14T10:34:41.195Z,15.46
2019-05-14T10:35:41.161Z,15.39
2019-05-14T10:37:34.075Z,15.35
2019-05-14T10:38:34.079Z,15.39
2019-05-14T10:40:29.214Z,15.47
2019-05-14T10:41:28.984Z,15.49
2019-05-14T10:43:20.426Z,15.53
2019-05-14T10:44:20.432Z,15.69
2019-05-14T10:46:13.844Z,15.86
2019-05-14T10:47:13.852Z,15.86
2019-05-14T10:49:19.294Z,16.05
2019-05-14T10:50:13.345Z,16.20
2019-05-14T10:51:59.710Z,16.15
2019-05-14T10:52:59.829Z,16.27
2019-05-14T10:54:55.732Z,16.17
2019-05-14T10:55:52.638Z,16.11
2019-05-14T10:57:45.556Z,16.11
2019-05-14T10:58:45.563Z,16.12
2019-05-14T11:00:41.824Z,16.07
2019-05-14T11:01:39.061Z,16.21
2019-05-14T11:03:31.409Z,16.12
2019-05-14T11:04:34.346Z,16.17
2019-05-14T11:06:24.328Z,16.08
2019-05-14T11:07:24.341Z,15.96
2019-05-14T11:09:18.092Z,16.08
2019-05-14T11:10:19.506Z,16.09
2019-05-14T11:12:10.178Z,16.01
2019-05-14T11:13:10.187Z,16.01
2019-05-14T11:15:03.103Z,15.74
2019-05-14T11:16:03.111Z,15.71
2019-05-14T11:17:56.029Z,15.72
2019-05-14T11:18:57.597Z,15.74
2019-05-14T11:20:51.433Z,15.82
2019-05-14T11:21:49.018Z,15.83
2019-05-14T11:23:42.429Z,15.94
2019-05-14T11:24:42.446Z,16.05
2019-05-14T11:26:35.400Z,16.24
2019-05-14T11:27:35.361Z,16.30
2019-05-14T11:29:29.555Z,16.28
2019-05-14T11:30:28.793Z,16.43
2019-05-14T11:32:21.223Z,16.41
2019-05-14T11:33:21.237Z,16.48
2019-05-14T11:35:14.115Z,16.56
2019-05-14T11:36:14.126Z,16.53
2019-05-14T11:38:24.060Z,16.53
2019-05-14T11:39:09.366Z,16.56
2019-05-14T11:40:59.968Z,16.57
2019-05-14T11:41:59.987Z,16.50
2019-05-14T11:43:53.392Z,16.49
2019-05-14T11:44:53.407Z,16.50
2019-05-14T11:46:52.400Z,16.58
2019-05-14T11:47:48.692Z,16.63
2019-05-14T11:49:39.248Z,16.60
2019-05-14T11:50:39.254Z,16.63
2019-05-14T11:52:32.171Z,16.76
2019-05-14T11:53:32.180Z,16.78
2019-05-14T11:55:25.107Z,16.88
2019-05-14T11:56:25.108Z,16.79
2019-05-14T11:58:20.814Z,16.48
2019-05-14T11:59:19.071Z,16.39
2019-05-14T12:01:11.470Z,16.38
2019-05-14T12:02:11.461Z,16.48
2019-05-14T12:04:04.390Z,16.61
2019-05-14T12:05:04.384Z,16.64
2019-05-14T12:06:59.047Z,16.75
2019-05-14T12:07:57.895Z,16.76
2019-05-14T12:09:52.403Z,16.78
2019-05-14T12:10:50.745Z,16.83
2019-05-14T12:12:43.659Z,16.83
2019-05-14T12:13:43.666Z,16.94
2019-05-14T12:15:38.870Z,16.97
2019-05-14T12:16:39.775Z,17.04
2019-05-14T12:18:30.018Z,17.06
2019-05-14T12:19:30.012Z,17.28
2019-05-14T12:21:22.988Z,17.46
2019-05-14T12:22:22.940Z,17.38
2019-05-14T12:24:18.299Z,17.38
2019-05-14T12:25:18.602Z,17.26
2019-05-14T12:27:08.985Z,17.44
2019-05-14T12:28:13.709Z,17.44
2019-05-14T12:30:01.709Z,17.28
2019-05-14T12:31:01.722Z,17.23
2019-05-14T12:32:54.679Z,17.11
2019-05-14T12:33:54.652Z,17.06
2019-05-14T12:35:49.467Z,17.07
2019-05-14T12:36:49.306Z,17.07
2019-05-14T12:38:40.499Z,17.06
2019-05-14T12:39:40.512Z,17.12
2019-05-14T12:41:33.437Z,16.97
2019-05-14T12:42:33.464Z,16.83
2019-05-14T12:44:28.877Z,16.71
2019-05-14T12:45:29.583Z,16.76
2019-05-14T12:47:19.286Z,16.82
2019-05-14T12:48:19.293Z,16.83
2019-05-14T12:50:12.206Z,17.06
2019-05-14T12:51:12.217Z,17.06
2019-05-14T12:53:05.152Z,17.08
2019-05-14T12:54:05.164Z,17.06
2019-05-14T12:55:58.088Z,17.00
2019-05-14T12:56:58.093Z,16.91
2019-05-14T12:58:51.014Z,16.79
2019-05-14T12:59:51.022Z,16.66
2019-05-14T13:01:43.932Z,16.56
2019-05-14T13:02:43.948Z,16.67
2019-05-14T13:04:36.870Z,16.96
2019-05-14T13:05:36.874Z,17.03
2019-05-14T13:07:30.291Z,17.41
2019-05-14T13:08:30.296Z,17.48
2019-05-14T13:10:23.211Z,17.74
2019-05-14T13:11:23.231Z,17.87
2019-05-14T13:13:16.145Z,17.81
2019-05-14T13:14:16.151Z,17.81
2019-05-14T13:16:09.574Z,17.77
2019-05-14T13:17:09.574Z,17.79
2019-05-14T13:19:02.494Z,17.71
2019-05-14T13:20:02.579Z,17.59
2019-05-14T13:22:12.103Z,17.37
2019-05-14T13:22:55.430Z,17.36
2019-05-14T13:24:49.321Z,17.26
2019-05-14T13:25:48.356Z,17.25
2019-05-14T13:27:41.281Z,17.23
2019-05-14T13:28:41.287Z,17.22
2019-05-14T13:30:34.201Z,17.46
2019-05-14T13:31:34.374Z,17.59
2019-05-14T13:33:28.434Z,17.71
2019-05-14T13:34:29.024Z,17.75
2019-05-14T13:36:20.771Z,17.84
2019-05-14T13:37:20.068Z,17.78
2019-05-14T13:39:13.014Z,17.58
2019-05-14T13:40:13.977Z,17.49
2019-05-14T13:42:06.173Z,17.30
2019-05-14T13:43:06.056Z,17.26
2019-05-14T13:44:58.866Z,17.26
2019-05-14T13:45:59.062Z,17.37
2019-05-14T13:47:51.850Z,17.48
2019-05-14T13:48:51.834Z,17.58
2019-05-14T13:50:44.750Z,17.70
2019-05-14T13:51:44.765Z,17.63
2019-05-14T13:53:39.022Z,17.44
2019-05-14T13:54:39.345Z,17.41
2019-05-14T13:56:30.732Z,17.19
2019-05-14T13:57:30.632Z,17.30
2019-05-14T13:59:23.560Z,17.51
2019-05-14T14:00:23.560Z,17.41
2019-05-14T14:02:18.862Z,17.54
2019-05-14T14:03:19.693Z,17.72
2019-05-14T14:05:10.622Z,18.00
2019-05-14T14:06:10.841Z,18.10
2019-05-14T14:08:03.331Z,18.29
2019-05-14T14:09:03.336Z,18.27
2019-05-14T14:11:02.232Z,18.12
2019-05-14T14:11:58.784Z,18.02
2019-05-14T14:13:49.695Z,17.82
2019-05-14T14:14:49.700Z,17.78
2019-05-14T14:16:42.621Z,17.75
2019-05-14T14:17:42.634Z,17.59
2019-05-14T14:19:35.622Z,17.74
2019-05-14T14:20:35.581Z,17.77
2019-05-14T14:22:28.479Z,17.95
2019-05-14T14:23:31.153Z,17.96
2019-05-14T14:25:21.432Z,17.93
2019-05-14T14:26:21.417Z,17.93
2019-05-14T14:28:14.345Z,17.97
2019-05-14T14:29:14.355Z,17.96
2019-05-14T14:31:10.614Z,18.02
2019-05-14T14:32:11.126Z,17.93
2019-05-14T14:34:00.279Z,17.96
2019-05-14T14:35:00.224Z,18.11
2019-05-14T14:36:55.172Z,18.08
2019-05-14T14:37:53.652Z,18.11
2019-05-14T14:39:48.738Z,18.25
2019-05-14T14:40:48.560Z,18.29
2019-05-14T14:42:40.329Z,18.14
2019-05-14T14:43:43.268Z,17.93
2019-05-14T14:45:32.555Z,17.84
2019-05-14T14:46:32.443Z,17.86
2019-05-14T14:48:25.369Z,17.90
2019-05-14T14:49:25.376Z,18.00
2019-05-14T14:51:19.259Z,17.99
2019-05-14T14:52:19.953Z,18.07
2019-05-14T14:54:15.837Z,18.03
2019-05-14T14:55:11.230Z,18.11
2019-05-14T14:57:04.176Z,17.95
2019-05-14T14:58:04.187Z,17.90
2019-05-14T14:59:57.099Z,17.90
2019-05-14T15:00:59.301Z,18.05
2019-05-14T15:02:50.086Z,18.18
2019-05-14T15:03:50.991Z,18.15
2019-05-14T15:05:42.940Z,18.15
2019-05-14T15:06:42.944Z,18.27
2019-05-14T15:08:38.630Z,18.15
2019-05-14T15:09:35.874Z,18.08
2019-05-14T15:11:29.497Z,17.95
2019-05-14T15:12:29.229Z,17.81
2019-05-14T15:14:21.736Z,17.74
2019-05-14T15:15:21.745Z,17.63
2019-05-14T15:17:14.670Z,17.64
2019-05-14T15:18:14.676Z,17.74
2019-05-14T15:20:10.231Z,17.84
2019-05-14T15:21:09.794Z,17.90
2019-05-14T15:23:01.547Z,18.00
2019-05-14T15:24:10.657Z,17.97
2019-05-14T15:25:54.459Z,18.10
2019-05-14T15:26:54.482Z,18.05
2019-05-14T15:28:49.455Z,18.18
2019-05-14T15:29:48.814Z,18.21
2019-05-14T15:31:40.347Z,18.15
2019-05-14T15:32:40.366Z,18.23
2019-05-14T15:34:33.283Z,18.23
2019-05-14T15:35:33.294Z,18.00
2019-05-14T15:37:31.242Z,18.03
2019-05-14T15:38:30.234Z,17.96
2019-05-14T15:40:22.359Z,17.97
2019-05-14T15:41:20.500Z,17.90
2019-05-14T15:43:12.569Z,18.08
2019-05-14T15:44:12.567Z,18.10
2019-05-14T15:46:08.538Z,18.00
2019-05-14T15:47:11.191Z,17.96
2019-05-14T15:48:59.460Z,17.95
2019-05-14T15:49:59.468Z,17.87
2019-05-14T15:51:51.371Z,17.87
2019-05-14T15:52:51.384Z,17.93
2019-05-14T15:54:47.305Z,17.86
2019-05-14T15:55:44.308Z,17.74
2019-05-14T15:57:39.854Z,17.78
2019-05-14T15:58:39.037Z,17.89
2019-05-14T16:00:30.156Z,17.93
2019-05-14T16:01:30.161Z,17.96
2019-05-14T16:03:23.101Z,17.99
2019-05-14T16:04:23.097Z,17.93
2019-05-14T16:06:16.005Z,17.96
2019-05-14T16:07:18.439Z,17.97
2019-05-14T16:09:08.989Z,17.99
2019-05-14T16:10:08.998Z,17.92
2019-05-14T16:12:01.906Z,17.84
2019-05-14T16:13:01.926Z,17.92
2019-05-14T16:14:54.842Z,17.78
2019-05-14T16:15:54.824Z,17.86
2019-05-14T16:18:04.182Z,17.97
2019-05-14T16:18:48.084Z,17.97
2019-05-14T16:20:40.645Z,17.95
2019-05-14T16:21:40.656Z,17.78
2019-05-14T16:23:33.579Z,17.77
2019-05-14T16:24:33.577Z,17.75
2019-05-14T16:26:28.988Z,17.77
2019-05-14T16:27:29.614Z,17.86
2019-05-14T16:29:35.469Z,17.93
2019-05-14T16:30:19.439Z,17.96
2019-05-14T16:32:12.342Z,18.00
2019-05-14T16:33:12.361Z,18.00
2019-05-14T16:35:05.276Z,18.12
2019-05-14T16:36:05.284Z,18.14
2019-05-14T16:37:59.178Z,17.93
2019-05-14T16:38:58.593Z,18.02
2019-05-14T16:40:51.202Z,17.86
2019-05-14T16:41:51.147Z,17.87
2019-05-14T16:43:44.078Z,17.81
2019-05-14T16:44:44.077Z,17.81
2019-05-14T16:46:38.460Z,17.72
2019-05-14T16:47:39.859Z,17.74
2019-05-14T16:49:30.330Z,17.56
2019-05-14T16:50:29.926Z,17.55
2019-05-14T16:52:22.835Z,17.43
2019-05-14T16:53:22.849Z,17.25
2019-05-14T16:55:24.673Z,17.31
2019-05-14T16:56:15.773Z,17.26
2019-05-14T16:58:09.012Z,17.44
2019-05-14T16:59:09.116Z,17.52
2019-05-14T17:01:01.618Z,17.66
2019-05-14T17:02:01.657Z,17.71
2019-05-14T17:03:54.585Z,17.90
2019-05-14T17:04:54.553Z,17.93
2019-05-14T17:06:49.384Z,17.95
2019-05-14T17:07:48.960Z,17.97
2019-05-14T17:09:40.490Z,17.96
2019-05-14T17:10:40.452Z,17.95
2019-05-14T17:12:48.399Z,17.72
2019-05-14T17:13:33.357Z,17.71
2019-05-14T17:15:28.617Z,17.74
2019-05-14T17:16:28.740Z,17.66
2019-05-14T17:18:19.393Z,17.63
2019-05-14T17:19:19.208Z,17.74
2019-05-14T17:21:12.217Z,17.68
2019-05-14T17:22:27.673Z,17.63
2019-05-14T17:24:05.101Z,17.71
2019-05-14T17:25:05.186Z,17.70
2019-05-14T17:26:58.346Z,17.79
2019-05-14T17:27:59.341Z,17.72
2019-05-14T17:29:50.955Z,17.75
2019-05-14T17:30:50.958Z,17.75
2019-05-14T17:32:43.876Z,17.70
2019-05-14T17:33:43.890Z,17.75
2019-05-14T17:35:38.909Z,17.79
2019-05-14T17:36:38.972Z,17.86
2019-05-14T17:38:29.760Z,17.74
2019-05-14T17:39:29.772Z,17.81
2019-05-14T17:41:23.199Z,17.75
2019-05-14T17:42:23.199Z,17.74
2019-05-14T17:44:16.115Z,17.59
2019-05-14T17:45:16.125Z,17.66
2019-05-14T17:47:09.047Z,17.52
2019-05-14T17:48:09.054Z,17.41
2019-05-14T17:50:02.083Z,17.34
2019-05-14T17:51:01.977Z,17.28
2019-05-14T17:52:56.389Z,17.25
2019-05-14T17:53:54.902Z,17.19
2019-05-14T17:55:50.710Z,17.22
2019-05-14T17:56:48.574Z,17.30
2019-05-14T17:58:40.756Z,17.52
2019-05-14T17:59:40.764Z,17.63
2019-05-14T18:01:33.685Z,17.74
2019-05-14T18:02:33.698Z,17.81
2019-05-14T18:04:28.377Z,17.75
2019-05-14T18:05:28.971Z,17.79
2019-05-14T18:07:19.530Z,17.95
2019-05-14T18:08:19.546Z,18.02
2019-05-14T18:10:12.469Z,18.11
2019-05-14T18:11:12.473Z,17.93
2019-05-14T18:13:05.386Z,17.75
2019-05-14T18:14:05.417Z,17.71
2019-05-14T18:15:58.329Z,17.46
2019-05-14T18:16:58.635Z,17.54
2019-05-14T18:18:51.241Z,17.43
2019-05-14T18:19:51.253Z,17.28
2019-05-14T18:21:44.214Z,17.23
2019-05-14T18:22:44.174Z,17.22
2019-05-14T18:24:39.232Z,17.15
2019-05-14T18:25:38.838Z,17.16
2019-05-14T18:27:30.038Z,17.04
2019-05-14T18:28:30.047Z,17.06
2019-05-14T18:30:22.965Z,16.85
2019-05-14T18:31:22.980Z,16.79
2019-05-14T18:33:18.584Z,16.61
2019-05-14T18:34:15.907Z,16.66
2019-05-14T18:36:08.825Z,16.56
2019-05-14T18:37:13.761Z,16.50
2019-05-14T18:39:01.745Z,16.43
2019-05-14T18:40:01.755Z,16.42
2019-05-14T18:41:55.184Z,16.14